createdAt,value
2019-03-30T00:02:17.925Z,57.30
2019-03-30T00:04:45.156Z,55.53
2019-03-30T00:07:10.391Z,58.67
2019-03-30T00:10:13.418Z,57.77
2019-03-30T00:13:05.126Z,60.80
2019-03-30T00:15:38.618Z,57.07
2019-03-30T00:18:04.467Z,56.70
2019-03-30T00:20:29.669Z,64.83
2019-03-30T00:22:57.100Z,68.80
2019-03-30T00:25:22.275Z,58.97
2019-03-30T00:27:49.558Z,60.70
2019-03-30T00:30:14.837Z,60.37
2019-03-30T00:32:40.189Z,58.83
2019-03-30T00:35:05.478Z,62.07
2019-03-30T00:37:30.745Z,65.07
2019-03-30T00:39:55.967Z,62.97
2019-03-30T00:42:21.167Z,60.20
2019-03-30T00:44:46.341Z,59.43
2019-03-30T00:47:12.527Z,59.93
2019-03-30T00:49:48.415Z,58.73
2019-03-30T00:52:07.194Z,55.40
2019-03-30T00:54:32.368Z,61.30
2019-03-30T00:56:57.684Z,56.77
2019-03-30T00:59:23.047Z,56.90
2019-03-30T01:01:48.302Z,58.87
2019-03-30T01:04:13.607Z,58.57
2019-03-30T01:06:38.782Z,57.27
2019-03-30T01:09:05.398Z,56.20
2019-03-30T01:11:30.846Z,57.50
2019-03-30T01:13:56.099Z,56.50
2019-03-30T01:16:21.277Z,58.00
2019-03-30T01:18:46.426Z,58.40
2019-03-30T01:21:11.578Z,57.00
2019-03-30T01:23:36.934Z,57.97
2019-03-30T01:26:02.103Z,58.90
2019-03-30T01:28:27.251Z,55.57
2019-03-30T01:30:52.521Z,55.23
2019-03-30T01:33:17.759Z,62.07
2019-03-30T01:35:42.977Z,58.30
2019-03-30T01:38:08.451Z,61.07
2019-03-30T01:40:33.610Z,59.93
2019-03-30T01:42:58.763Z,56.33
2019-03-30T01:45:23.952Z,57.67
2019-03-30T01:47:49.100Z,57.07
2019-03-30T01:50:17.662Z,58.97
2019-03-30T01:52:42.472Z,55.10
2019-03-30T01:55:08.852Z,57.90
2019-03-30T01:57:34.039Z,58.37
2019-03-30T01:59:59.542Z,56.93
2019-03-30T02:02:24.700Z,56.20
2019-03-30T02:04:49.936Z,60.60
2019-03-30T02:07:15.119Z,57.00
2019-03-30T02:09:40.275Z,56.47
2019-03-30T02:12:05.559Z,58.50
2019-03-30T02:14:30.762Z,55.53
2019-03-30T02:16:55.986Z,55.73
2019-03-30T02:19:21.347Z,54.93
2019-03-30T02:21:46.504Z,55.00
2019-03-30T02:24:11.745Z,55.20
2019-03-30T02:26:36.967Z,56.73
2019-03-30T02:29:02.239Z,56.37
2019-03-30T02:31:27.385Z,55.60
2019-03-30T02:33:52.867Z,54.60
2019-03-30T02:36:18.228Z,55.40
2019-03-30T02:38:43.379Z,55.83
2019-03-30T02:41:08.530Z,55.80
2019-03-30T02:43:33.703Z,55.37
2019-03-30T02:45:58.848Z,57.80
2019-03-30T02:48:23.990Z,52.10
2019-03-30T02:50:50.790Z,53.83
2019-03-30T02:53:16.084Z,54.53
2019-03-30T02:55:41.283Z,54.50
2019-03-30T02:58:06.464Z,53.37
2019-03-30T03:00:31.716Z,56.13
2019-03-30T03:02:56.892Z,53.37
2019-03-30T03:05:22.141Z,55.53
2019-03-30T03:07:47.295Z,56.27
2019-03-30T03:10:13.050Z,51.37
2019-03-30T03:12:38.443Z,51.90
2019-03-30T03:15:07.348Z,50.07
2019-03-30T03:17:32.520Z,53.90
2019-03-30T03:19:57.736Z,57.37
2019-03-30T03:22:22.912Z,55.20
2019-03-30T03:24:48.258Z,52.90
2019-03-30T03:27:14.423Z,55.70
2019-03-30T03:29:43.469Z,55.53
2019-03-30T03:32:07.697Z,54.43
2019-03-30T03:34:32.891Z,55.60
2019-03-30T03:36:58.139Z,51.83
2019-03-30T03:39:23.291Z,54.43
2019-03-30T03:41:48.453Z,54.60
2019-03-30T03:44:13.603Z,55.37
2019-03-30T03:46:38.863Z,54.47
2019-03-30T03:49:04.037Z,50.00
2019-03-30T03:51:29.382Z,51.00
2019-03-30T03:53:54.793Z,53.77
2019-03-30T03:56:20.633Z,55.40
2019-03-30T03:58:46.083Z,49.80
2019-03-30T04:01:13.982Z,52.30
2019-03-30T04:03:40.083Z,51.90
2019-03-30T04:06:05.631Z,52.10
2019-03-30T04:08:30.886Z,49.47
2019-03-30T04:10:56.852Z,46.13
2019-03-30T04:13:25.796Z,47.93
2019-03-30T04:15:51.060Z,47.57
2019-03-30T04:18:16.513Z,46.60
2019-03-30T04:20:41.651Z,47.60
2019-03-30T04:23:06.787Z,45.57
2019-03-30T04:25:31.968Z,45.07
2019-03-30T04:27:57.108Z,45.43
2019-03-30T04:30:22.344Z,43.30
2019-03-30T04:32:48.538Z,42.30
2019-03-30T04:35:13.687Z,45.00
2019-03-30T04:37:38.836Z,42.10
2019-03-30T08:00:17.058Z,19.67
2019-03-30T08:02:42.822Z,20.50
2019-03-30T08:05:08.824Z,20.40
2019-03-30T08:07:34.473Z,21.30
2019-03-30T08:10:00.340Z,21.30
2019-03-30T08:12:25.909Z,20.63
2019-03-30T08:14:51.822Z,22.70
2019-03-30T08:17:17.380Z,21.47
2019-03-30T08:19:42.912Z,22.13
2019-03-30T08:22:08.613Z,22.10
2019-03-30T08:24:34.123Z,22.07
2019-03-30T08:26:59.679Z,23.23
2019-03-30T08:29:25.220Z,21.63
2019-03-30T08:31:51.259Z,22.40
2019-03-30T08:34:16.904Z,22.53
2019-03-30T08:36:42.466Z,22.90
2019-03-30T08:39:08.283Z,22.57
2019-03-30T08:41:33.966Z,22.70
2019-03-30T08:43:59.507Z,23.80
2019-03-30T08:46:25.039Z,21.57
2019-03-30T08:48:50.572Z,22.77
2019-03-30T08:51:16.360Z,22.23
2019-03-30T08:53:54.048Z,23.00
2019-03-30T08:56:09.343Z,22.20
2019-03-30T08:58:35.709Z,23.70
2019-03-30T09:01:02.167Z,22.87
2019-03-30T09:03:27.344Z,21.53
2019-03-30T09:05:52.902Z,23.43
2019-03-30T09:08:18.432Z,22.43
2019-03-30T09:10:43.955Z,23.10
2019-03-30T09:13:10.040Z,22.40
2019-03-30T09:15:35.641Z,21.63
2019-03-30T09:18:01.155Z,23.37
2019-03-30T09:20:26.699Z,21.30
2019-03-30T09:22:52.267Z,20.30
2019-03-30T09:25:17.830Z,21.30
2019-03-30T09:27:43.475Z,19.93
2019-03-30T09:30:09.599Z,20.80
2019-03-30T09:32:35.361Z,19.77
2019-03-30T09:35:01.321Z,19.83
2019-03-30T09:37:26.961Z,19.40
2019-03-30T09:39:52.716Z,19.93
2019-03-30T09:42:18.311Z,18.47
2019-03-30T09:44:44.006Z,17.73
2019-03-30T09:47:09.581Z,18.53
2019-03-30T09:49:35.354Z,19.53
2019-03-30T09:52:05.936Z,19.30
2019-03-30T09:54:31.739Z,19.33
2019-03-30T09:56:57.327Z,18.83
2019-03-30T09:59:23.035Z,18.80
2019-03-30T10:01:49.897Z,17.30
2019-03-30T10:04:15.599Z,19.37
2019-03-30T10:06:41.501Z,18.17
2019-03-30T10:09:07.135Z,16.63
2019-03-30T10:11:33.074Z,16.40
2019-03-30T10:13:58.986Z,18.37
2019-03-30T10:16:24.231Z,16.63
2019-03-30T10:18:49.439Z,18.07
2019-03-30T10:21:14.680Z,18.07
2019-03-30T10:23:40.302Z,18.50
2019-03-30T10:26:05.918Z,19.93
2019-03-30T10:28:31.583Z,19.63
2019-03-30T10:30:57.147Z,18.97
2019-03-30T10:33:22.732Z,19.17
2019-03-30T10:35:48.548Z,18.60
2019-03-30T10:38:14.084Z,20.37
2019-03-30T10:40:40.653Z,21.40
2019-03-30T10:43:06.350Z,20.30
2019-03-30T10:45:31.912Z,20.17
2019-03-30T10:48:06.428Z,19.47
2019-03-30T10:50:32.051Z,20.00
2019-03-30T10:52:57.608Z,20.90
2019-03-30T10:55:23.171Z,21.27
2019-03-30T10:57:49.026Z,22.07
2019-03-30T11:00:16.453Z,22.20
2019-03-30T11:02:41.992Z,21.60
2019-03-30T11:05:07.713Z,23.40
2019-03-30T11:07:33.266Z,21.70
2019-03-30T11:09:58.825Z,22.40
2019-03-30T11:12:24.410Z,22.10
2019-03-30T11:14:50.246Z,24.37
2019-03-30T11:17:19.159Z,25.00
2019-03-30T11:19:43.578Z,24.00
2019-03-30T11:22:09.376Z,24.40
2019-03-30T11:24:34.985Z,25.07
2019-03-30T11:27:00.745Z,23.43
2019-03-30T11:29:26.699Z,26.07
2019-03-30T11:31:52.259Z,23.00
2019-03-30T11:34:17.869Z,23.90
2019-03-30T11:36:43.487Z,22.87
2019-03-30T11:39:09.025Z,21.70
2019-03-30T11:41:34.617Z,21.93
2019-03-30T11:44:00.155Z,22.10
2019-03-30T11:46:25.815Z,21.70
2019-03-30T11:48:51.358Z,20.63
2019-03-30T11:51:17.773Z,20.87
2019-03-30T11:53:43.632Z,19.30
2019-03-30T11:56:09.186Z,20.10
2019-03-30T11:58:34.759Z,23.27
2019-03-30T12:01:00.473Z,21.73
2019-03-30T12:03:26.017Z,21.43
2019-03-30T12:05:51.583Z,20.70
2019-03-30T12:08:17.352Z,20.10
2019-03-30T12:10:42.966Z,19.60
2019-03-30T12:13:08.519Z,17.47
2019-03-30T12:15:34.155Z,16.10
2019-03-30T12:17:59.720Z,16.63
2019-03-30T12:20:25.292Z,15.80
2019-03-30T12:22:50.834Z,16.17
2019-03-30T12:25:16.660Z,16.97
2019-03-30T12:27:42.335Z,15.37
2019-03-30T12:30:08.077Z,16.53
2019-03-30T12:32:33.821Z,18.17
2019-03-30T12:34:59.596Z,16.43
2019-03-30T12:37:25.203Z,16.00
2019-03-30T12:39:50.935Z,15.90
2019-03-30T12:42:16.491Z,12.37
2019-03-30T12:44:43.221Z,13.90
2019-03-30T12:47:10.387Z,15.90
2019-03-30T12:49:36.611Z,15.83
2019-03-30T12:52:02.214Z,14.50
2019-03-30T12:54:30.230Z,14.93
2019-03-30T12:56:56.044Z,14.33
2019-03-30T12:59:21.790Z,15.70
2019-03-30T13:01:47.361Z,15.30
2019-03-30T13:04:13.019Z,13.83
2019-03-30T13:06:38.692Z,13.80
2019-03-30T13:09:04.747Z,13.87
2019-03-30T13:11:30.700Z,15.53
2019-03-30T13:13:56.581Z,15.07
2019-03-30T13:16:22.381Z,16.10
2019-03-30T13:18:48.018Z,14.70
2019-03-30T13:21:13.702Z,14.67
2019-03-30T13:23:39.342Z,15.80
2019-03-30T13:26:07.954Z,35.33
2019-03-30T13:28:33.624Z,19.97
2019-03-30T13:30:59.281Z,15.80
2019-03-30T13:33:24.963Z,16.03
2019-03-30T13:35:51.141Z,14.40
2019-03-30T13:38:16.699Z,15.27
2019-03-30T13:40:42.414Z,14.17
2019-03-30T13:43:08.004Z,13.73
2019-03-30T13:45:33.666Z,14.20
2019-03-30T13:47:59.209Z,12.93
2019-03-30T13:50:24.817Z,12.10
2019-03-30T13:52:52.970Z,12.90
2019-03-30T13:55:18.625Z,12.67
2019-03-30T13:57:44.149Z,12.50
2019-03-30T14:00:10.004Z,12.50
2019-03-30T14:02:36.567Z,11.70
2019-03-30T14:05:02.752Z,11.63
2019-03-30T14:07:31.098Z,11.47
2019-03-30T14:10:03.135Z,12.20
2019-03-30T14:12:28.748Z,11.07
2019-03-30T14:14:54.331Z,12.17
2019-03-30T14:17:20.215Z,13.60
2019-03-30T14:19:47.095Z,14.77
2019-03-30T14:22:12.823Z,13.50
2019-03-30T14:24:38.570Z,14.53
2019-03-30T14:27:04.214Z,14.57
2019-03-30T14:29:31.749Z,13.20
2019-03-30T14:31:57.299Z,14.07
2019-03-30T14:34:23.839Z,14.10
2019-03-30T14:36:49.633Z,13.67
2019-03-30T14:39:15.187Z,13.27
2019-03-30T14:41:40.749Z,13.50
2019-03-30T14:44:06.511Z,12.80
2019-03-30T14:46:32.048Z,14.77
2019-03-30T14:48:57.604Z,13.43
2019-03-30T14:51:23.327Z,12.33
2019-03-30T14:53:48.837Z,11.10
2019-03-30T14:56:14.486Z,12.67
2019-03-30T14:58:40.228Z,11.17
2019-03-30T15:01:06.803Z,11.10
2019-03-30T15:03:32.324Z,11.70
2019-03-30T15:05:57.986Z,12.20
2019-03-30T15:08:23.511Z,12.27
2019-03-30T15:10:49.052Z,12.57
2019-03-30T15:13:14.614Z,13.00
2019-03-30T15:15:40.168Z,12.17
2019-03-30T15:18:05.772Z,12.53
2019-03-30T15:20:31.306Z,11.60
2019-03-30T15:22:56.864Z,12.90
2019-03-30T15:25:22.460Z,12.67
2019-03-30T15:27:47.995Z,12.70
2019-03-30T15:30:14.735Z,12.57
2019-03-30T15:32:40.263Z,12.20
2019-03-30T15:35:06.442Z,12.30
2019-03-30T15:37:31.955Z,12.27
2019-03-30T15:39:57.538Z,14.63
2019-03-30T15:42:23.100Z,15.07
2019-03-30T15:44:48.796Z,14.00
2019-03-30T15:47:14.367Z,13.63
2019-03-30T15:49:39.908Z,13.17
2019-03-30T15:52:13.882Z,14.63
2019-03-30T15:54:33.177Z,13.43
2019-03-30T15:56:58.794Z,13.90
2019-03-30T15:59:24.295Z,13.57
2019-03-30T16:01:49.819Z,13.97
2019-03-30T16:04:15.388Z,13.70
2019-03-30T16:06:40.920Z,13.10
2019-03-30T16:09:07.295Z,12.90
2019-03-30T16:11:32.840Z,13.77
2019-03-30T16:13:58.393Z,12.80
2019-03-30T16:16:24.019Z,12.67
2019-03-30T16:18:49.563Z,12.50
2019-03-30T16:21:15.084Z,13.00
2019-03-30T16:23:40.645Z,12.53
2019-03-30T16:26:06.282Z,13.93
2019-03-30T16:28:31.806Z,12.90
2019-03-30T16:30:57.343Z,12.53
2019-03-30T16:33:23.111Z,13.30
2019-03-30T16:35:48.672Z,12.00
2019-03-30T16:38:14.478Z,12.97
2019-03-30T16:40:40.087Z,13.43
2019-03-30T16:43:08.268Z,12.70
2019-03-30T16:45:33.068Z,13.53
2019-03-30T16:47:58.644Z,13.87
2019-03-30T16:50:24.262Z,14.13
2019-03-30T16:52:49.791Z,12.00
2019-03-30T16:55:15.577Z,13.30
2019-03-30T16:57:44.396Z,11.80
2019-03-30T17:00:08.811Z,12.13
2019-03-30T17:02:34.344Z,13.77
2019-03-30T17:04:59.864Z,14.37
2019-03-30T17:07:25.395Z,13.70
2019-03-30T17:09:50.938Z,12.60
2019-03-30T17:12:16.780Z,12.63
2019-03-30T17:14:42.355Z,14.30
2019-03-30T17:17:07.972Z,14.60
2019-03-30T17:19:33.600Z,15.23
2019-03-30T17:21:59.118Z,15.17
2019-03-30T17:24:24.659Z,19.93
2019-03-30T17:26:50.193Z,23.70
2019-03-30T17:29:15.725Z,34.00
2019-03-30T17:31:41.230Z,36.23
2019-03-30T17:34:06.757Z,38.60
2019-03-30T17:36:32.292Z,42.53
2019-03-30T17:38:57.805Z,46.80
2019-03-30T17:41:23.338Z,44.93
2019-03-30T17:43:49.070Z,46.60
2019-03-30T17:46:14.590Z,45.70
2019-03-30T17:48:40.149Z,71.10
2019-03-30T17:51:05.721Z,45.43
2019-03-30T17:53:31.397Z,45.77
2019-03-30T17:55:56.962Z,47.07
2019-03-30T17:58:22.563Z,49.33
2019-03-30T18:00:48.126Z,54.93
2019-03-30T18:03:13.804Z,49.40
2019-03-30T18:05:39.315Z,47.50
2019-03-30T18:08:04.851Z,46.50
2019-03-30T18:10:30.444Z,49.90
2019-03-30T18:12:56.032Z,47.30
2019-03-30T18:15:21.762Z,50.17
2019-03-30T18:17:47.275Z,50.03
2019-03-30T18:20:13.372Z,49.87
2019-03-30T18:22:38.895Z,53.33
2019-03-30T18:25:05.514Z,56.43
2019-03-30T18:27:31.384Z,54.97
2019-03-30T18:29:56.959Z,53.77
2019-03-30T18:32:22.867Z,54.00
2019-03-30T18:34:48.795Z,54.90
2019-03-30T18:37:14.368Z,56.57
2019-03-30T18:39:39.974Z,54.40
2019-03-30T18:42:05.649Z,52.30
2019-03-30T18:44:31.180Z,50.73
2019-03-30T18:46:56.727Z,51.20
2019-03-30T18:49:22.333Z,52.63
2019-03-30T18:51:48.106Z,52.87
2019-03-30T18:54:13.774Z,54.07
2019-03-30T18:56:39.531Z,52.23
2019-03-30T18:59:05.098Z,49.73
2019-03-30T19:01:30.785Z,50.57
2019-03-30T19:03:56.677Z,52.70
2019-03-30T19:06:23.360Z,49.83
2019-03-30T19:08:48.968Z,52.87
2019-03-30T19:11:14.514Z,58.83
2019-03-30T19:13:40.040Z,58.60
2019-03-30T19:16:07.488Z,56.30
2019-03-30T19:18:33.176Z,56.07
2019-03-30T19:20:58.718Z,57.47
2019-03-30T19:23:24.236Z,59.83
2019-03-30T19:25:49.778Z,59.60
2019-03-30T19:28:15.304Z,60.33
2019-03-30T19:30:42.604Z,57.90
2019-03-30T19:33:08.362Z,57.00
2019-03-30T19:35:33.899Z,59.20
2019-03-30T19:37:59.434Z,57.93
2019-03-30T19:40:24.981Z,56.20
2019-03-30T19:42:50.502Z,55.57
2019-03-30T19:45:16.015Z,56.97
2019-03-30T19:47:41.544Z,58.43
2019-03-30T19:50:07.517Z,57.50
2019-03-30T19:52:39.829Z,53.33
2019-03-30T19:55:00.730Z,56.20
2019-03-30T19:57:27.862Z,56.23
2019-03-30T19:59:53.519Z,53.37
2019-03-30T20:02:19.110Z,53.77
2019-03-30T20:04:44.656Z,52.17
2019-03-30T20:07:10.195Z,51.40
2019-03-30T20:09:35.731Z,56.13
2019-03-30T20:12:01.409Z,54.13
2019-03-30T20:14:26.987Z,59.63
2019-03-30T20:16:52.675Z,54.83
2019-03-30T20:19:19.411Z,54.97
2019-03-30T20:21:44.899Z,51.60
2019-03-30T20:24:10.483Z,59.60
2019-03-30T20:26:36.066Z,56.67
2019-03-30T20:29:01.723Z,57.00
2019-03-30T20:31:29.378Z,60.93
2019-03-30T20:33:54.946Z,58.80
2019-03-30T20:36:20.471Z,68.10
2019-03-30T20:38:46.023Z,59.60
2019-03-30T20:41:11.568Z,62.67
2019-03-30T20:43:37.086Z,61.40
2019-03-30T20:46:02.651Z,59.17
2019-03-30T20:48:28.263Z,61.50
2019-03-30T20:50:53.804Z,59.03
2019-03-30T20:53:19.379Z,62.20
2019-03-30T20:55:45.259Z,57.57
2019-03-30T20:58:10.821Z,59.60
2019-03-30T21:00:37.507Z,58.27
2019-03-30T21:03:03.765Z,57.43
2019-03-30T21:05:29.293Z,60.23
2019-03-30T21:07:55.020Z,59.77
2019-03-30T21:10:20.616Z,61.33
2019-03-30T21:12:46.134Z,60.00
2019-03-30T21:15:11.999Z,60.00
2019-03-30T21:17:38.608Z,58.30
2019-03-30T21:20:04.844Z,59.10
2019-03-30T21:22:30.561Z,59.93
2019-03-30T21:24:56.196Z,55.97
2019-03-30T21:27:21.718Z,53.90
2019-03-30T21:29:54.581Z,55.90
2019-03-30T21:32:14.760Z,55.63
2019-03-30T21:34:40.302Z,55.10
2019-03-30T21:37:05.851Z,51.20
2019-03-30T21:39:31.406Z,55.10
2019-03-30T21:41:56.938Z,55.80
2019-03-30T21:44:22.651Z,54.13
2019-03-30T21:46:48.234Z,55.20
2019-03-30T21:49:13.902Z,54.37
2019-03-30T21:51:39.655Z,53.20
2019-03-30T21:54:05.247Z,56.03
2019-03-30T21:56:30.780Z,53.87
2019-03-30T21:58:56.342Z,55.73
2019-03-30T22:01:21.903Z,57.10
2019-03-30T22:03:47.490Z,53.80
2019-03-30T22:06:13.141Z,56.57
2019-03-30T22:08:38.827Z,54.27
2019-03-30T22:11:04.583Z,52.90
2019-03-30T22:13:30.153Z,53.77
2019-03-30T22:15:55.715Z,51.70
2019-03-30T22:18:21.331Z,51.97
2019-03-30T22:20:46.984Z,54.00
2019-03-30T22:23:13.510Z,53.13
2019-03-30T22:25:39.080Z,52.90
2019-03-30T22:28:04.625Z,52.67
2019-03-30T22:30:30.162Z,53.00
2019-03-30T22:32:55.975Z,56.37
2019-03-30T22:35:21.537Z,54.60
2019-03-30T22:37:47.347Z,53.17
2019-03-30T22:40:13.058Z,54.90
2019-03-30T22:42:38.599Z,53.87
2019-03-30T22:45:04.660Z,53.77
2019-03-30T22:47:30.286Z,54.67
2019-03-30T22:49:55.824Z,52.37
2019-03-30T22:52:21.363Z,56.43
2019-03-30T22:54:47.921Z,56.47
2019-03-30T22:57:13.460Z,56.77
2019-03-30T22:59:40.101Z,57.50
2019-03-30T23:02:06.250Z,56.27
2019-03-30T23:04:31.764Z,55.57
2019-03-30T23:06:57.354Z,53.53
2019-03-30T23:09:22.905Z,53.17
2019-03-30T23:11:48.691Z,54.23
2019-03-30T23:14:14.313Z,52.40
2019-03-30T23:16:39.979Z,59.17
2019-03-30T23:19:05.512Z,52.17
2019-03-30T23:21:31.041Z,51.93
2019-03-30T23:23:56.567Z,50.90
2019-03-30T23:26:22.133Z,51.30
2019-03-30T23:28:47.728Z,50.20
2019-03-30T23:31:13.327Z,48.40
2019-03-30T23:33:38.863Z,48.60
2019-03-30T23:36:04.391Z,45.97
2019-03-30T23:38:30.116Z,47.80
2019-03-30T23:40:55.679Z,48.87
2019-03-30T23:43:21.232Z,48.13
2019-03-30T23:45:46.735Z,47.63
2019-03-30T23:48:13.451Z,42.67
2019-03-30T23:50:38.976Z,46.33
2019-03-30T23:53:07.289Z,43.43
2019-03-30T23:55:31.945Z,40.17
2019-03-30T23:57:57.462Z,41.60
